createdAt,value
2023-03-12T00:00:42.247Z,101172.34
2023-03-12T00:03:10.545Z,101171.16
2023-03-12T00:05:39.074Z,101177.81
2023-03-12T00:08:07.665Z,101160.69
2023-03-12T00:10:36.124Z,101164.69
2023-03-12T00:13:04.282Z,101162.84
2023-03-12T00:15:32.334Z,101158.25
2023-03-12T00:18:01.646Z,101156.66
2023-03-12T00:20:30.029Z,101155.63
2023-03-12T00:22:57.927Z,101147.94
2023-03-12T00:25:25.923Z,101152.91
2023-03-12T00:27:54.029Z,101149.56
2023-03-12T00:30:22.020Z,101142.75
2023-03-12T00:32:50.117Z,101149.09
2023-03-12T00:35:19.686Z,101151.53
2023-03-12T00:37:47.666Z,101147.00
2023-03-12T00:40:15.752Z,101152.50
2023-03-12T00:42:43.760Z,101147.75
2023-03-12T00:45:12.604Z,101149.06
2023-03-12T00:47:40.572Z,101149.81
2023-03-12T00:50:09.985Z,101150.38
2023-03-12T00:52:39.411Z,101151.19
2023-03-12T00:55:08.018Z,101147.28
2023-03-12T00:57:36.139Z,101145.22
2023-03-12T01:00:06.976Z,101141.13
2023-03-12T01:02:34.949Z,101138.31
2023-03-12T01:05:02.961Z,101138.88
2023-03-12T01:07:30.912Z,101141.00
2023-03-12T01:10:00.970Z,101141.97
2023-03-12T01:12:29.110Z,101140.06
2023-03-12T01:14:59.168Z,101136.41
2023-03-12T01:17:27.739Z,101140.47
2023-03-12T01:19:56.122Z,101138.94
2023-03-12T01:22:24.074Z,101143.16
2023-03-12T01:24:52.203Z,101134.59
2023-03-12T01:27:21.681Z,101133.00
2023-03-12T01:29:49.624Z,101134.59
2023-03-12T01:32:18.389Z,101120.41
2023-03-12T01:34:46.485Z,101121.97
2023-03-12T01:37:15.161Z,101119.69
2023-03-12T01:39:43.167Z,101123.66
2023-03-12T01:42:11.299Z,101114.16
2023-03-12T01:44:58.311Z,101106.00
2023-03-12T01:47:27.144Z,101107.50
2023-03-12T01:49:57.204Z,101100.94
2023-03-12T01:52:30.418Z,101102.66
2023-03-12T01:55:02.909Z,101098.16
2023-03-12T01:57:37.738Z,101095.59
2023-03-12T02:00:13.938Z,101097.34
2023-03-12T02:02:44.181Z,101088.34
2023-03-12T02:05:21.014Z,101085.25
2023-03-12T02:07:49.045Z,101079.00
2023-03-12T02:10:17.877Z,101085.16
2023-03-12T02:12:46.003Z,101078.56
2023-03-12T02:15:15.677Z,101083.69
2023-03-12T02:17:44.341Z,101073.22
2023-03-12T02:20:18.525Z,101081.44
2023-03-12T02:22:53.761Z,101076.59
2023-03-12T02:25:32.138Z,101074.34
2023-03-12T02:28:02.423Z,101071.09
2023-03-12T02:30:32.530Z,101066.25
2023-03-12T02:33:03.562Z,101063.56
2023-03-12T02:35:31.991Z,101057.28
2023-03-12T02:38:00.394Z,101056.09
2023-03-12T02:40:36.670Z,101047.88
2023-03-12T02:43:07.276Z,101045.78
2023-03-12T02:45:37.670Z,101046.78
2023-03-12T02:48:09.998Z,101037.00
2023-03-12T02:50:38.001Z,101037.84
2023-03-12T02:53:06.292Z,101036.16
2023-03-12T02:55:36.491Z,101027.69
2023-03-12T02:58:04.524Z,101026.31
2023-03-12T03:00:34.107Z,101031.97
2023-03-12T03:03:03.116Z,101034.91
2023-03-12T03:05:31.227Z,101024.59
2023-03-12T03:07:59.850Z,101026.72
2023-03-12T03:10:28.708Z,101031.34
2023-03-12T03:12:58.841Z,101019.34
2023-03-12T03:15:27.276Z,101016.63
2023-03-12T03:17:55.824Z,101011.72
2023-03-12T03:20:26.029Z,101007.22
2023-03-12T03:22:54.486Z,101004.41
2023-03-12T03:25:23.590Z,101005.75
2023-03-12T03:27:52.094Z,101002.06
2023-03-12T03:30:22.290Z,100999.72
2023-03-12T03:32:52.544Z,100991.28
2023-03-12T03:35:22.230Z,100991.03
2023-03-12T03:37:50.460Z,100990.69
2023-03-12T03:40:19.327Z,100982.34
2023-03-12T03:42:47.526Z,100984.94
2023-03-12T03:45:15.449Z,100978.41
2023-03-12T03:47:46.466Z,100979.03
2023-03-12T03:50:15.101Z,100973.00
2023-03-12T03:52:43.203Z,100963.59
2023-03-12T03:55:11.425Z,100966.78
2023-03-12T03:57:40.152Z,100964.06
2023-03-12T04:00:13.192Z,100950.84
2023-03-12T04:02:47.418Z,100952.16
2023-03-12T04:05:19.561Z,100953.66
2023-03-12T04:07:48.819Z,100947.16
2023-03-12T04:10:20.521Z,100945.69
2023-03-12T04:12:48.480Z,100949.13
2023-03-12T04:15:16.757Z,100953.66
2023-03-12T04:17:46.907Z,100951.69
2023-03-12T04:20:15.380Z,100947.78
2023-03-12T04:22:43.930Z,100940.41
2023-03-12T04:25:12.390Z,100941.41
2023-03-12T04:27:40.739Z,100927.44
2023-03-12T04:30:10.692Z,100912.75
2023-03-12T04:32:39.825Z,100922.19
2023-03-12T04:35:09.916Z,100930.13
2023-03-12T04:37:37.993Z,100928.06
2023-03-12T04:40:08.115Z,100919.34
2023-03-12T04:42:37.466Z,100919.69
2023-03-12T04:45:07.334Z,100923.75
2023-03-12T04:47:37.678Z,100921.06
2023-03-12T04:50:07.152Z,100916.78
2023-03-12T04:52:36.858Z,100905.72
2023-03-12T04:55:07.171Z,100901.78
2023-03-12T04:57:35.327Z,100898.75
2023-03-12T05:00:10.144Z,100890.28
2023-03-12T05:02:38.508Z,100887.97
2023-03-12T05:05:07.648Z,100886.38
2023-03-12T05:07:37.436Z,100878.03
2023-03-12T05:10:06.891Z,100872.53
2023-03-12T05:12:35.299Z,100867.75
2023-03-12T05:15:03.831Z,100860.91
2023-03-12T05:17:31.828Z,100864.09
2023-03-12T05:19:59.951Z,100854.78
2023-03-12T05:22:28.003Z,100853.47
2023-03-12T05:24:57.455Z,100853.19
2023-03-12T05:27:26.083Z,100849.28
2023-03-12T05:29:55.023Z,100845.13
2023-03-12T05:32:23.419Z,100846.09
2023-03-12T05:34:51.677Z,100837.63
2023-03-12T05:37:19.730Z,100832.25
2023-03-12T05:39:50.118Z,100832.00
2023-03-12T05:42:20.674Z,100840.69
2023-03-12T05:44:51.367Z,100852.47
2023-03-12T05:47:21.380Z,100846.94
2023-03-12T05:49:50.084Z,100844.50
2023-03-12T05:52:18.162Z,100833.06
2023-03-12T05:54:46.305Z,100825.13
2023-03-12T05:57:16.883Z,100828.44
2023-03-12T05:59:46.286Z,100817.16
2023-03-12T06:02:15.519Z,100816.53
2023-03-12T06:04:44.429Z,100816.53
2023-03-12T06:07:12.912Z,100818.28
2023-03-12T06:09:41.933Z,100824.16
2023-03-12T06:12:11.469Z,100817.03
2023-03-12T06:14:39.611Z,100807.84
2023-03-12T06:17:09.500Z,100812.00
2023-03-12T06:19:38.062Z,100810.38
2023-03-12T06:22:06.607Z,100809.66
2023-03-12T06:24:34.748Z,100808.63
2023-03-12T06:27:05.981Z,100813.41
2023-03-12T06:29:34.083Z,100804.44
2023-03-12T06:32:03.026Z,100799.19
2023-03-12T06:34:32.444Z,100804.97
2023-03-12T06:37:00.719Z,100805.34
2023-03-12T06:39:29.942Z,100806.19
2023-03-12T06:41:58.220Z,100800.78
2023-03-12T06:44:26.380Z,100803.72
2023-03-12T06:46:54.761Z,100808.69
2023-03-12T06:49:22.979Z,100808.34
2023-03-12T06:51:52.543Z,100824.28
2023-03-12T06:54:20.433Z,100821.13
2023-03-12T06:56:48.332Z,100826.88
2023-03-12T06:59:16.268Z,100826.47
2023-03-12T07:01:44.398Z,100829.75
2023-03-12T07:04:12.380Z,100829.63
2023-03-12T07:06:40.746Z,100839.50
2023-03-12T07:09:11.024Z,100837.31
2023-03-12T07:11:39.019Z,100838.78
2023-03-12T07:14:07.251Z,100841.84
2023-03-12T07:16:35.949Z,100839.13
2023-03-12T07:19:03.930Z,100834.72
2023-03-12T07:21:31.923Z,100829.25
2023-03-12T07:24:00.978Z,100840.69
2023-03-12T07:26:30.579Z,100825.91
2023-03-12T07:28:58.713Z,100831.16
2023-03-12T07:31:26.694Z,100822.81
2023-03-12T07:33:54.855Z,100822.94
2023-03-12T07:36:23.906Z,100813.63
2023-03-12T07:38:52.180Z,100806.28
2023-03-12T07:41:20.199Z,100811.16
2023-03-12T07:43:49.621Z,100813.72
2023-03-12T07:46:18.153Z,100802.97
2023-03-12T07:48:46.084Z,100807.88
2023-03-12T07:51:14.065Z,100803.34
2023-03-12T07:53:42.075Z,100792.72
2023-03-12T07:56:10.318Z,100800.31
2023-03-12T07:58:39.211Z,100786.00
2023-03-12T08:01:09.235Z,100772.91
2023-03-12T08:03:37.364Z,100769.47
2023-03-12T08:06:06.730Z,100771.81
2023-03-12T08:08:36.251Z,100774.72
2023-03-12T08:11:06.183Z,100776.19
2023-03-12T08:13:34.434Z,100782.94
2023-03-12T08:16:02.835Z,100773.25
2023-03-12T08:18:32.211Z,100780.69
2023-03-12T08:21:00.469Z,100773.63
2023-03-12T08:23:28.666Z,100770.22
2023-03-12T08:25:56.630Z,100754.41
2023-03-12T08:28:25.287Z,100752.78
2023-03-12T08:30:54.665Z,100740.19
2023-03-12T08:33:23.238Z,100731.75
2023-03-12T08:35:52.859Z,100737.88
2023-03-12T08:38:21.214Z,100739.38
2023-03-12T08:40:56.350Z,100718.78
2023-03-12T08:43:24.382Z,100724.78
2023-03-12T08:45:56.003Z,100716.47
2023-03-12T08:48:24.079Z,100705.19
2023-03-12T08:50:56.246Z,100689.03
2023-03-12T08:53:24.489Z,100688.19
2023-03-12T08:55:53.700Z,100684.75
2023-03-12T08:58:21.841Z,100674.47
2023-03-12T09:00:49.919Z,100654.50
2023-03-12T09:03:18.128Z,100647.31
2023-03-12T09:05:46.813Z,100646.31
2023-03-12T09:08:16.623Z,100643.41
2023-03-12T09:10:50.136Z,100645.72
2023-03-12T09:13:18.311Z,100655.38
2023-03-12T09:15:46.573Z,100656.34
2023-03-12T09:18:14.706Z,100661.03
2023-03-12T09:20:43.507Z,100654.16
2023-03-12T09:23:11.614Z,100650.00
2023-03-12T09:25:41.070Z,100652.94
2023-03-12T09:28:09.764Z,100656.97
2023-03-12T09:30:37.748Z,100660.88
2023-03-12T09:33:06.184Z,100661.38
2023-03-12T09:35:34.351Z,100644.28
2023-03-12T09:38:02.745Z,100650.88
2023-03-12T09:40:34.535Z,100655.28
2023-03-12T09:43:09.310Z,100662.00
2023-03-12T09:45:40.301Z,100656.88
2023-03-12T09:48:16.022Z,100654.19
2023-03-12T09:50:47.254Z,100659.19
2023-03-12T09:53:29.429Z,100635.72
2023-03-12T09:55:59.208Z,100631.31
2023-03-12T09:58:32.372Z,100630.81
2023-03-12T10:01:08.515Z,100632.63
2023-03-12T10:04:01.193Z,100641.00
2023-03-12T10:06:33.779Z,100641.72
2023-03-12T10:09:14.378Z,100634.41
2023-03-12T10:11:49.893Z,100624.72
2023-03-12T10:14:30.880Z,100613.34
2023-03-12T10:17:23.794Z,100614.22
2023-03-12T10:20:02.528Z,100600.53
2023-03-12T10:22:38.140Z,100591.34
2023-03-12T10:25:16.286Z,100599.88
2023-03-12T10:27:44.425Z,100590.28
2023-03-12T10:30:19.280Z,100592.31
2023-03-12T10:32:50.381Z,100579.97
2023-03-12T10:35:21.969Z,100584.13
2023-03-12T10:37:53.851Z,100575.66
2023-03-12T10:40:24.781Z,100583.88
2023-03-12T10:42:53.668Z,100580.94
2023-03-12T10:45:36.287Z,100577.88
2023-03-12T10:48:09.038Z,100552.81
2023-03-12T10:50:38.992Z,100559.84
2023-03-12T10:53:26.353Z,100556.56
2023-03-12T10:56:01.785Z,100560.00
2023-03-12T10:58:34.161Z,100555.00
2023-03-12T11:01:05.864Z,100554.03
2023-03-12T11:03:34.683Z,100562.78
2023-03-12T11:06:04.319Z,100557.66
2023-03-12T11:08:35.388Z,100558.44
2023-03-12T11:11:05.766Z,100548.91
2023-03-12T11:13:35.833Z,100538.28
2023-03-12T11:16:26.912Z,100541.97
2023-03-12T11:18:57.584Z,100536.91
2023-03-12T11:21:25.645Z,100533.53
2023-03-12T11:24:09.824Z,100526.84
2023-03-12T11:26:51.734Z,100520.44
2023-03-12T11:29:26.936Z,100541.16
2023-03-12T11:32:04.849Z,100531.25
2023-03-12T11:34:35.152Z,100519.09
2023-03-12T11:37:11.853Z,100513.66
2023-03-12T11:39:52.904Z,100513.97
2023-03-12T11:42:35.101Z,100500.03
2023-03-12T11:45:14.237Z,100498.41
2023-03-12T11:47:57.439Z,100484.41
2023-03-12T11:50:42.192Z,100485.47
2023-03-12T11:53:45.677Z,100467.00
2023-03-12T11:56:25.509Z,100496.59
2023-03-12T11:59:23.135Z,100486.78
2023-03-12T12:02:02.451Z,100473.38
2023-03-12T12:05:05.709Z,100465.56
2023-03-12T12:07:46.426Z,100482.31
2023-03-12T12:10:25.645Z,100463.19
2023-03-12T12:13:04.358Z,100469.63
2023-03-12T12:15:40.517Z,100478.63
2023-03-12T12:18:24.300Z,100461.00
2023-03-12T12:21:00.540Z,100449.81
2023-03-12T12:23:38.904Z,100445.59
2023-03-12T12:26:10.297Z,100442.38
2023-03-12T12:28:56.077Z,100439.69
2023-03-12T12:31:31.607Z,100433.63
2023-03-12T12:34:33.232Z,100429.47
2023-03-12T12:37:17.532Z,100425.09
2023-03-12T12:39:48.781Z,100426.66
2023-03-12T12:42:22.757Z,100429.50
2023-03-12T12:44:54.538Z,100427.66
2023-03-12T12:47:33.337Z,100420.38
2023-03-12T12:50:02.468Z,100411.97
2023-03-12T12:52:32.694Z,100404.72
2023-03-12T12:55:09.100Z,100400.50
2023-03-12T12:57:40.730Z,100400.22
2023-03-12T13:00:24.344Z,100407.53
2023-03-12T13:02:53.411Z,100416.63
2023-03-12T13:05:26.570Z,100410.28
2023-03-12T13:07:56.397Z,100408.84
2023-03-12T13:10:53.166Z,100412.47
2023-03-12T13:13:27.536Z,100417.13
2023-03-12T13:16:31.039Z,100416.53
2023-03-12T13:19:00.784Z,100415.22
2023-03-12T13:21:37.506Z,100414.94
2023-03-12T13:24:18.418Z,100423.94
2023-03-12T13:26:58.090Z,100416.00
2023-03-12T13:29:39.998Z,100423.13
2023-03-12T13:32:31.349Z,100426.75
2023-03-12T13:34:59.576Z,100408.13
2023-03-12T13:38:00.756Z,100426.44
2023-03-12T13:40:55.792Z,100434.44
2023-03-12T13:43:52.685Z,100440.63
2023-03-12T13:46:42.876Z,100435.63
2023-03-12T13:49:19.933Z,100437.94
2023-03-12T13:52:09.578Z,100434.47
2023-03-12T13:54:42.820Z,100430.91
2023-03-12T13:57:37.761Z,100432.50
2023-03-12T14:00:16.888Z,100424.31
2023-03-12T14:02:50.179Z,100418.34
2023-03-12T14:05:21.413Z,100414.72
2023-03-12T14:08:12.286Z,100411.78
2023-03-12T14:11:01.511Z,100413.94
2023-03-12T14:13:59.222Z,100413.59
2023-03-12T14:16:33.444Z,100413.09
2023-03-12T14:19:04.329Z,100412.00
2023-03-12T14:21:38.083Z,100419.97
2023-03-12T14:24:11.851Z,100424.81
2023-03-12T14:26:40.663Z,100425.56
2023-03-12T14:29:20.171Z,100433.44
2023-03-12T14:31:50.139Z,100440.16
2023-03-12T14:34:21.951Z,100439.53
2023-03-12T14:36:59.403Z,100453.69
2023-03-12T14:39:33.606Z,100446.34
2023-03-12T14:42:05.028Z,100451.94
2023-03-12T14:44:36.666Z,100461.56
2023-03-12T14:47:10.421Z,100453.84
2023-03-12T14:49:40.728Z,100459.53
2023-03-12T14:52:12.332Z,100488.09
2023-03-12T14:54:40.790Z,100469.00
2023-03-12T14:57:15.691Z,100485.41
2023-03-12T14:59:54.046Z,100513.22
2023-03-12T15:02:23.231Z,100494.72
2023-03-12T15:04:56.485Z,100485.41
2023-03-12T15:07:29.679Z,100495.16
2023-03-12T15:09:58.298Z,100495.22
2023-03-12T15:12:32.276Z,100495.69
2023-03-12T15:15:08.608Z,100505.13
2023-03-12T15:17:37.411Z,100509.06
2023-03-12T15:20:09.572Z,100505.88
2023-03-12T15:22:38.704Z,100498.47
2023-03-12T15:25:22.618Z,100483.81
2023-03-12T15:28:02.630Z,100506.88
2023-03-12T15:30:33.004Z,100512.84
2023-03-12T15:33:12.458Z,100482.84
2023-03-12T15:35:44.777Z,100488.78
2023-03-12T15:38:17.787Z,100502.69
2023-03-12T15:40:51.180Z,100494.75
2023-03-12T15:43:20.281Z,100489.69
2023-03-12T15:46:00.017Z,100480.03
2023-03-12T15:48:31.265Z,100488.66
2023-03-12T15:51:00.235Z,100493.09
2023-03-12T15:53:32.501Z,100498.53
2023-03-12T15:56:37.474Z,100479.06
2023-03-12T15:59:49.361Z,100477.06
2023-03-12T16:03:16.123Z,100473.34
2023-03-12T16:07:09.595Z,100476.94
2023-03-12T16:10:22.386Z,100463.34
2023-03-12T16:13:11.388Z,100465.28
2023-03-12T16:16:11.795Z,100450.25
2023-03-12T16:19:01.526Z,100465.06
2023-03-12T16:22:10.645Z,100471.59
2023-03-12T16:37:37.927Z,100452.53
2023-03-12T16:40:06.908Z,100467.78
2023-03-12T16:42:35.123Z,100461.63
2023-03-12T16:45:04.154Z,100455.41
2023-03-12T16:47:32.424Z,100454.88
2023-03-12T16:50:00.499Z,100442.19
2023-03-12T16:52:28.407Z,100438.81
2023-03-12T16:54:58.264Z,100437.47
2023-03-12T16:57:30.982Z,100450.88
2023-03-12T16:59:59.840Z,100441.47
2023-03-12T17:02:28.471Z,100440.81
2023-03-12T17:04:56.718Z,100435.34
2023-03-12T17:07:24.947Z,100431.28
2023-03-12T17:09:52.892Z,100431.34
2023-03-12T17:12:29.475Z,100421.09
2023-03-12T17:14:58.641Z,100429.38
2023-03-12T17:17:26.819Z,100434.00
2023-03-12T17:19:54.807Z,100432.28
2023-03-12T17:22:23.124Z,100435.81
2023-03-12T17:24:51.112Z,100434.22
2023-03-12T17:27:18.934Z,100430.34
2023-03-12T17:29:48.534Z,100425.63
2023-03-12T17:32:16.900Z,100439.84
2023-03-12T17:34:45.302Z,100432.16
2023-03-12T17:37:13.538Z,100431.13
2023-03-12T17:39:41.820Z,100437.75
2023-03-12T17:42:09.927Z,100436.28
2023-03-12T17:44:39.078Z,100439.66
2023-03-12T17:47:08.587Z,100434.59
2023-03-12T17:49:36.475Z,100433.09
2023-03-12T17:52:04.816Z,100435.63
2023-03-12T17:54:32.911Z,100442.63
2023-03-12T17:57:00.885Z,100453.72
2023-03-12T17:59:28.927Z,100466.47
2023-03-12T18:01:56.797Z,100465.59
2023-03-12T18:04:26.054Z,100482.25
2023-03-12T18:06:54.633Z,100480.56
2023-03-12T18:09:23.245Z,100491.38
2023-03-12T18:11:51.150Z,100486.69
2023-03-12T18:14:19.206Z,100492.00
2023-03-12T18:16:47.173Z,100491.31
2023-03-12T18:19:16.163Z,100500.03
2023-03-12T18:21:46.082Z,100487.84
2023-03-12T18:24:14.896Z,100486.63
2023-03-12T18:26:43.186Z,100482.16
2023-03-12T18:29:11.484Z,100484.03
2023-03-12T18:31:39.653Z,100475.44
2023-03-12T18:34:07.735Z,100470.41
2023-03-12T18:36:35.822Z,100463.91
2023-03-12T18:39:06.554Z,100449.91
2023-03-12T18:41:35.330Z,100441.34
2023-03-12T18:44:04.117Z,100445.47
2023-03-12T18:46:32.501Z,100451.53
2023-03-12T18:49:05.187Z,100448.72
2023-03-12T18:51:33.642Z,100452.56
2023-03-12T18:54:03.040Z,100454.94
2023-03-12T18:56:32.522Z,100457.47
2023-03-12T18:59:00.368Z,100462.44
2023-03-12T19:01:28.970Z,100464.41
2023-03-12T19:03:57.230Z,100464.00
2023-03-12T19:06:25.432Z,100465.78
2023-03-12T19:08:54.293Z,100477.69
2023-03-12T19:11:22.368Z,100462.47
2023-03-12T19:13:53.440Z,100462.41
2023-03-12T19:16:22.904Z,100458.06
2023-03-12T19:18:52.221Z,100459.91
2023-03-12T19:21:20.143Z,100458.69
2023-03-12T19:23:48.912Z,100448.97
2023-03-12T19:26:17.144Z,100440.25
2023-03-12T19:28:45.076Z,100435.59
2023-03-12T19:31:15.346Z,100435.88
2023-03-12T19:33:44.832Z,100442.25
2023-03-12T19:36:12.870Z,100431.97
2023-03-12T19:38:41.105Z,100421.66
2023-03-12T19:41:09.873Z,100430.03
2023-03-12T19:43:40.407Z,100404.09
2023-03-12T19:46:09.445Z,100407.66
2023-03-12T19:48:38.731Z,100399.19
2023-03-12T19:51:09.063Z,100390.00
2023-03-12T19:53:39.282Z,100394.53
2023-03-12T19:56:08.922Z,100387.41
2023-03-12T19:58:36.961Z,100389.69
2023-03-12T20:01:06.030Z,100371.34
2023-03-12T20:03:34.172Z,100374.25
2023-03-12T20:06:04.579Z,100372.13
2023-03-12T20:08:32.628Z,100364.34
2023-03-12T20:11:05.806Z,100370.94
2023-03-12T20:13:34.489Z,100369.56
2023-03-12T20:16:04.408Z,100363.59
2023-03-12T20:18:32.724Z,100374.13
2023-03-12T20:21:01.455Z,100375.97
2023-03-12T20:23:33.052Z,100365.97
2023-03-12T20:26:01.199Z,100365.78
2023-03-12T20:28:29.486Z,100377.09
2023-03-12T20:30:58.455Z,100370.81
2023-03-12T20:33:26.942Z,100373.25
2023-03-12T20:35:56.055Z,100373.53
2023-03-12T20:38:24.155Z,100370.28
2023-03-12T20:40:53.517Z,100377.44
2023-03-12T20:43:21.523Z,100354.75
2023-03-12T20:45:50.666Z,100367.31
2023-03-12T20:48:19.409Z,100376.31
2023-03-12T20:50:51.056Z,100371.03
2023-03-12T20:53:19.586Z,100376.78
2023-03-12T20:55:47.775Z,100370.13
2023-03-12T20:58:17.181Z,100367.44
2023-03-12T21:00:45.402Z,100349.50
2023-03-12T21:03:14.811Z,100349.19
2023-03-12T21:05:43.111Z,100350.91
2023-03-12T21:08:11.133Z,100343.22
2023-03-12T21:10:39.892Z,100357.25
2023-03-12T21:13:07.968Z,100333.22
2023-03-12T21:15:38.528Z,100352.69
2023-03-12T21:18:07.107Z,100339.38
2023-03-12T21:20:37.864Z,100348.69
2023-03-12T21:23:06.792Z,100328.72
2023-03-12T21:25:36.368Z,100329.25
2023-03-12T21:28:06.349Z,100323.66
2023-03-12T21:30:35.013Z,100313.63
2023-03-12T21:33:05.988Z,100318.22
2023-03-12T21:35:36.139Z,100313.13
2023-03-12T21:38:04.572Z,100305.47
2023-03-12T21:40:33.276Z,100284.09
2023-03-12T21:43:01.340Z,100295.31
2023-03-12T21:45:29.456Z,100286.63
2023-03-12T21:47:57.732Z,100283.25
2023-03-12T21:50:27.255Z,100272.41
2023-03-12T21:52:56.838Z,100284.63
2023-03-12T21:55:25.348Z,100286.63
2023-03-12T21:57:53.472Z,100276.81
2023-03-12T22:00:22.980Z,100278.00
2023-03-12T22:02:51.271Z,100280.22
2023-03-12T22:05:22.646Z,100273.75
2023-03-12T22:07:52.198Z,100274.47
2023-03-12T22:10:20.322Z,100264.78
2023-03-12T22:12:48.418Z,100259.19
2023-03-12T22:15:16.676Z,100256.97
2023-03-12T22:17:44.594Z,100257.69
2023-03-12T22:20:13.440Z,100252.91
2023-03-12T22:22:41.671Z,100249.34
2023-03-12T22:25:11.353Z,100241.84
2023-03-12T22:27:39.347Z,100240.84
2023-03-12T22:30:08.498Z,100230.00
2023-03-12T22:32:36.541Z,100247.66
2023-03-12T22:35:05.502Z,100233.03
2023-03-12T22:37:34.184Z,100231.34
2023-03-12T22:40:07.247Z,100215.75
2023-03-12T22:42:41.314Z,100220.50
2023-03-12T22:45:11.388Z,100212.00
2023-03-12T22:47:39.826Z,100215.88
2023-03-12T22:50:09.642Z,100194.84
2023-03-12T22:52:38.873Z,100204.34
2023-03-12T22:55:08.383Z,100187.75
2023-03-12T22:57:39.461Z,100200.28
2023-03-12T23:00:12.955Z,100190.63
2023-03-12T23:02:41.820Z,100187.72
2023-03-12T23:05:12.158Z,100183.28
2023-03-12T23:07:41.086Z,100165.66
2023-03-12T23:10:10.635Z,100161.91
2023-03-12T23:12:39.876Z,100155.31
2023-03-12T23:15:09.086Z,100157.53
2023-03-12T23:17:37.094Z,100141.19
2023-03-12T23:20:07.671Z,100147.81
2023-03-12T23:22:35.775Z,100142.38
2023-03-12T23:25:04.140Z,100127.28
2023-03-12T23:27:32.351Z,100120.16
2023-03-12T23:30:01.675Z,100118.09
2023-03-12T23:32:29.648Z,100109.31
2023-03-12T23:34:57.589Z,100110.16
2023-03-12T23:37:25.914Z,100115.88
2023-03-12T23:39:55.243Z,100097.22
2023-03-12T23:42:23.668Z,100092.41
2023-03-12T23:44:51.550Z,100090.19
2023-03-12T23:47:21.210Z,100079.44
2023-03-12T23:49:49.818Z,100073.03
2023-03-12T23:52:17.727Z,100068.66
2023-03-12T23:54:45.648Z,100065.28
2023-03-12T23:57:13.598Z,100059.16
2023-03-12T23:59:41.725Z,100062.94
